createdAt,value
2016-09-24T00:00:09.530Z,48.76
2016-09-24T00:00:41.933Z,48.76
2016-09-24T00:01:14.248Z,48.85
2016-09-24T00:01:46.584Z,48.76
2016-09-24T00:02:18.916Z,48.85
2016-09-24T00:02:51.224Z,48.95
2016-09-24T00:03:23.545Z,48.85
2016-09-24T00:03:55.874Z,48.76
2016-09-24T00:04:28.198Z,48.76
2016-09-24T00:05:00.507Z,48.76
2016-09-24T00:05:32.837Z,48.76
2016-09-24T00:06:05.174Z,48.85
2016-09-24T00:06:37.549Z,49.15
2016-09-24T00:07:09.885Z,48.95
2016-09-24T00:07:42.213Z,48.76
2016-09-24T00:08:14.538Z,49.05
2016-09-24T00:08:46.866Z,48.95
2016-09-24T00:09:19.187Z,49.33
2016-09-24T00:09:51.520Z,48.76
2016-09-24T00:10:23.829Z,48.85
2016-09-24T00:10:56.170Z,48.95
2016-09-24T00:11:28.507Z,48.85
2016-09-24T00:12:00.831Z,49.05
2016-09-24T00:12:33.154Z,49.05
2016-09-24T00:13:05.476Z,48.85
2016-09-24T00:13:37.790Z,48.76
2016-09-24T00:14:10.108Z,49.15
2016-09-24T00:14:42.434Z,48.85
2016-09-24T00:15:14.766Z,49.05
2016-09-24T00:15:47.109Z,49.15
2016-09-24T00:16:19.437Z,48.95
2016-09-24T00:16:51.764Z,48.85
2016-09-24T00:17:24.086Z,48.95
2016-09-24T00:17:56.419Z,49.15
2016-09-24T00:18:28.751Z,49.15
2016-09-24T00:19:01.075Z,48.93
2016-09-24T00:19:33.385Z,48.83
2016-09-24T00:20:05.709Z,49.02
2016-09-24T00:20:38.032Z,49.12
2016-09-24T00:21:10.370Z,48.93
2016-09-24T00:21:42.700Z,49.12
2016-09-24T00:22:15.025Z,49.15
2016-09-24T00:22:47.351Z,48.95
2016-09-24T00:23:19.675Z,48.95
2016-09-24T00:23:51.993Z,48.85
2016-09-24T00:24:24.309Z,49.15
2016-09-24T00:24:56.628Z,49.15
2016-09-24T00:25:28.948Z,49.05
2016-09-24T00:26:01.280Z,48.93
2016-09-24T00:26:33.621Z,49.12
2016-09-24T00:27:05.938Z,48.85
2016-09-24T00:27:38.263Z,48.93
2016-09-24T00:28:10.593Z,48.93
2016-09-24T00:28:42.922Z,48.93
2016-09-24T00:29:15.243Z,49.12
2016-09-24T00:29:47.569Z,49.12
2016-09-24T00:30:19.890Z,48.83
2016-09-24T00:30:52.212Z,49.02
2016-09-24T00:31:24.544Z,48.83
2016-09-24T00:31:56.864Z,48.93
2016-09-24T00:32:29.877Z,48.95
2016-09-24T00:33:02.205Z,48.83
2016-09-24T00:33:34.541Z,48.93
2016-09-24T00:34:06.864Z,48.93
2016-09-24T00:34:39.196Z,48.93
2016-09-24T00:35:11.525Z,48.93
2016-09-24T00:35:43.831Z,48.93
2016-09-24T00:36:16.156Z,48.83
2016-09-24T00:36:48.469Z,48.83
2016-09-24T00:37:20.799Z,49.02
2016-09-24T00:37:53.129Z,48.93
2016-09-24T00:38:25.455Z,49.22
2016-09-24T00:38:57.787Z,48.93
2016-09-24T00:39:30.103Z,48.74
2016-09-24T00:40:02.429Z,49.22
2016-09-24T00:40:34.760Z,49.02
2016-09-24T00:41:07.077Z,48.93
2016-09-24T00:41:39.391Z,49.02
2016-09-24T00:42:11.714Z,49.12
2016-09-24T00:42:44.035Z,49.12
2016-09-24T00:43:16.360Z,49.12
2016-09-24T00:43:48.685Z,49.02
2016-09-24T00:44:21.013Z,49.02
2016-09-24T00:44:53.341Z,48.93
2016-09-24T00:45:25.656Z,49.02
2016-09-24T00:45:57.986Z,49.02
2016-09-24T00:46:30.315Z,49.12
2016-09-24T00:47:02.629Z,49.22
2016-09-24T00:47:34.956Z,48.93
2016-09-24T00:48:07.268Z,49.02
2016-09-24T00:48:39.593Z,49.31
2016-09-24T00:49:11.925Z,49.22
2016-09-24T00:49:44.251Z,48.93
2016-09-24T00:50:16.569Z,49.12
2016-09-24T00:50:48.890Z,49.12
2016-09-24T00:51:21.222Z,49.02
2016-09-24T00:51:53.543Z,49.02
2016-09-24T00:52:25.872Z,49.02
2016-09-24T00:52:58.193Z,49.02
2016-09-24T00:53:30.517Z,49.12
2016-09-24T00:54:02.853Z,49.12
2016-09-24T00:54:35.194Z,48.93
2016-09-24T00:55:07.526Z,49.31
2016-09-24T00:55:39.850Z,49.02
2016-09-24T00:56:12.164Z,49.12
2016-09-24T00:56:44.492Z,48.93
2016-09-24T00:57:16.826Z,49.02
2016-09-24T00:57:49.141Z,49.02
2016-09-24T00:58:21.488Z,49.22
2016-09-24T00:58:53.798Z,49.02
2016-09-24T00:59:26.130Z,49.02
2016-09-24T00:59:58.464Z,49.22
2016-09-24T01:00:30.788Z,49.12
2016-09-24T01:01:03.119Z,49.02
2016-09-24T01:01:35.451Z,49.02
2016-09-24T01:02:07.786Z,49.22
2016-09-24T01:02:40.107Z,49.12
2016-09-24T01:03:12.427Z,49.22
2016-09-24T01:03:44.762Z,49.02
2016-09-24T01:04:17.082Z,49.22
2016-09-24T01:04:49.406Z,49.22
2016-09-24T01:05:21.735Z,49.22
2016-09-24T01:05:54.059Z,49.31
2016-09-24T01:06:26.406Z,49.12
2016-09-24T01:06:58.728Z,49.22
2016-09-24T01:07:31.061Z,49.41
2016-09-24T01:08:03.379Z,49.31
2016-09-24T01:08:35.704Z,49.12
2016-09-24T01:09:08.038Z,49.12
2016-09-24T01:09:40.368Z,49.31
2016-09-24T01:10:12.682Z,49.02
2016-09-24T01:10:44.996Z,49.31
2016-09-24T01:11:17.317Z,49.02
2016-09-24T01:11:49.627Z,49.12
2016-09-24T01:12:21.946Z,49.12
2016-09-24T01:12:54.281Z,49.12
2016-09-24T01:13:26.619Z,49.41
2016-09-24T01:13:58.945Z,49.02
2016-09-24T01:14:31.285Z,49.41
2016-09-24T01:15:03.624Z,49.12
2016-09-24T01:15:35.956Z,49.12
2016-09-24T01:16:08.288Z,49.02
2016-09-24T01:16:40.611Z,49.22
2016-09-24T01:17:12.940Z,49.02
2016-09-24T01:17:45.259Z,49.02
2016-09-24T01:18:17.584Z,49.12
2016-09-24T01:18:49.919Z,49.12
2016-09-24T01:19:22.245Z,49.41
2016-09-24T01:19:54.576Z,49.51
2016-09-24T01:20:26.901Z,49.41
2016-09-24T01:20:59.218Z,49.51
2016-09-24T01:21:31.540Z,49.12
2016-09-24T01:22:03.868Z,49.02
2016-09-24T01:22:36.191Z,49.31
2016-09-24T01:23:08.526Z,49.12
2016-09-24T01:23:40.859Z,49.02
2016-09-24T01:24:13.177Z,49.12
2016-09-24T01:24:45.502Z,49.02
2016-09-24T01:25:17.841Z,49.02
2016-09-24T01:25:50.172Z,48.93
2016-09-24T01:26:22.495Z,49.12
2016-09-24T01:26:54.828Z,49.02
2016-09-24T01:27:27.152Z,49.02
2016-09-24T01:27:59.483Z,49.57
2016-09-24T01:28:31.805Z,49.02
2016-09-24T01:29:04.138Z,49.12
2016-09-24T01:29:36.467Z,48.93
2016-09-24T01:30:08.782Z,49.22
2016-09-24T01:30:41.115Z,49
2016-09-24T01:31:13.436Z,49.02
2016-09-24T01:31:45.750Z,48.93
2016-09-24T01:32:18.087Z,48.93
2016-09-24T01:32:50.421Z,48.9
2016-09-24T01:33:22.752Z,48.93
2016-09-24T01:33:55.073Z,49.22
2016-09-24T01:34:27.406Z,49
2016-09-24T01:34:59.725Z,49.02
2016-09-24T01:35:32.025Z,49.02
2016-09-24T01:36:04.355Z,49.12
2016-09-24T01:36:36.684Z,48.9
2016-09-24T01:37:09.020Z,49.22
2016-09-24T01:37:41.357Z,49.41
2016-09-24T01:38:13.689Z,49.1
2016-09-24T01:38:46.036Z,49
2016-09-24T01:39:18.375Z,49.02
2016-09-24T01:39:50.696Z,49
2016-09-24T01:40:23.028Z,49.31
2016-09-24T01:40:55.356Z,49.29
2016-09-24T01:41:27.672Z,49.29
2016-09-24T01:41:59.986Z,49.02
2016-09-24T01:42:32.312Z,49
2016-09-24T01:43:04.640Z,49
2016-09-24T01:43:37.116Z,49.29
2016-09-24T01:44:09.444Z,49.38
2016-09-24T01:44:41.774Z,49.29
2016-09-24T01:45:14.105Z,49.51
2016-09-24T01:45:46.439Z,49.29
2016-09-24T01:46:18.780Z,49.51
2016-09-24T01:46:51.111Z,49.48
2016-09-24T01:47:23.441Z,49.1
2016-09-24T01:47:55.771Z,49.02
2016-09-24T01:48:28.084Z,49.29
2016-09-24T01:49:00.410Z,49.31
2016-09-24T01:49:32.736Z,49.31
2016-09-24T01:50:05.064Z,49.38
2016-09-24T01:50:37.407Z,49.29
2016-09-24T01:51:09.748Z,49.29
2016-09-24T01:51:42.074Z,49.38
2016-09-24T01:52:14.408Z,49.38
2016-09-24T01:52:46.747Z,49.02
2016-09-24T01:53:19.056Z,49.48
2016-09-24T01:53:51.374Z,49.12
2016-09-24T01:54:23.689Z,49
2016-09-24T01:54:56.014Z,49.48
2016-09-24T01:55:28.329Z,49
2016-09-24T01:56:00.639Z,49
2016-09-24T01:56:32.960Z,49.38
2016-09-24T01:57:05.287Z,49.38
2016-09-24T01:57:37.609Z,49.38
2016-09-24T01:58:09.942Z,49.38
2016-09-24T01:58:42.262Z,49.38
2016-09-24T01:59:14.601Z,49.38
2016-09-24T01:59:46.928Z,49.1
2016-09-24T02:00:19.259Z,49.19
2016-09-24T02:00:51.573Z,49.19
2016-09-24T02:01:23.899Z,49.19
2016-09-24T02:01:56.230Z,49.19
2016-09-24T02:02:28.551Z,49.48
2016-09-24T02:03:00.892Z,49.48
2016-09-24T02:03:33.221Z,49.38
2016-09-24T02:04:05.550Z,49.38
2016-09-24T02:04:37.876Z,49.19
2016-09-24T02:05:10.187Z,49.19
2016-09-24T02:05:42.490Z,49.48
2016-09-24T02:06:14.796Z,49.29
2016-09-24T02:06:47.115Z,49.19
2016-09-24T02:07:19.453Z,49.29
2016-09-24T02:07:51.780Z,49.29
2016-09-24T02:08:24.118Z,48.81
2016-09-24T02:08:56.442Z,49.38
2016-09-24T02:09:28.776Z,49.29
2016-09-24T02:10:01.103Z,49.1
2016-09-24T02:10:33.418Z,49.1
2016-09-24T02:11:05.738Z,49.29
2016-09-24T02:11:38.065Z,49
2016-09-24T02:12:10.393Z,49.1
2016-09-24T02:12:42.723Z,49
2016-09-24T02:13:15.034Z,49
2016-09-24T02:13:47.369Z,49.29
2016-09-24T02:14:19.688Z,49.1
2016-09-24T02:14:52.019Z,49
2016-09-24T02:15:24.342Z,49.29
2016-09-24T02:15:56.664Z,49.19
2016-09-24T02:16:29.000Z,49.38
2016-09-24T02:17:01.321Z,49.29
2016-09-24T02:17:33.654Z,49
2016-09-24T02:18:05.982Z,49.29
2016-09-24T02:18:38.297Z,49
2016-09-24T02:19:10.606Z,49.38
2016-09-24T02:19:42.927Z,49
2016-09-24T02:20:15.241Z,49.1
2016-09-24T02:20:47.567Z,49.19
2016-09-24T02:21:19.879Z,49
2016-09-24T02:21:52.192Z,49.29
2016-09-24T02:22:24.529Z,49.19
2016-09-24T02:22:56.865Z,49.29
2016-09-24T02:23:29.198Z,49.29
2016-09-24T02:24:01.517Z,49.29
2016-09-24T02:24:33.849Z,48.9
2016-09-24T02:25:06.187Z,49.1
2016-09-24T02:25:38.514Z,48.9
2016-09-24T02:26:10.835Z,49
2016-09-24T02:26:43.154Z,49.1
2016-09-24T02:27:15.497Z,49.29
2016-09-24T02:27:47.825Z,49.48
2016-09-24T02:28:20.154Z,49.29
2016-09-24T02:28:52.477Z,49.1
2016-09-24T02:29:24.818Z,49.29
2016-09-24T02:29:57.145Z,49.48
2016-09-24T02:30:29.469Z,49.29
2016-09-24T02:31:01.789Z,49.19
2016-09-24T02:31:34.128Z,49.1
2016-09-24T02:32:06.456Z,49.57
2016-09-24T02:32:38.777Z,49.48
2016-09-24T02:33:11.096Z,49.29
2016-09-24T02:33:43.414Z,49.1
2016-09-24T02:34:15.723Z,49.29
2016-09-24T02:34:48.040Z,49.1
2016-09-24T02:35:20.367Z,49.29
2016-09-24T02:35:52.695Z,49.1
2016-09-24T02:36:25.013Z,49.19
2016-09-24T02:36:57.342Z,49.57
2016-09-24T02:37:29.663Z,49.67
2016-09-24T02:38:01.998Z,49.1
2016-09-24T02:38:34.320Z,49.1
2016-09-24T02:39:06.675Z,49.67
2016-09-24T02:39:38.993Z,49.67
2016-09-24T02:40:11.319Z,49.57
2016-09-24T02:40:43.632Z,49.48
2016-09-24T02:41:15.962Z,49.57
2016-09-24T02:41:48.283Z,49.57
2016-09-24T02:42:20.593Z,49.67
2016-09-24T02:42:52.918Z,49.1
2016-09-24T02:43:25.251Z,49.57
2016-09-24T02:43:57.586Z,49.67
2016-09-24T02:44:29.902Z,49.48
2016-09-24T02:45:02.233Z,49.57
2016-09-24T02:45:34.547Z,49.1
2016-09-24T02:46:06.867Z,49.1
2016-09-24T02:46:39.196Z,49.67
2016-09-24T02:47:11.518Z,49.1
2016-09-24T02:47:43.836Z,49.67
2016-09-24T02:48:16.160Z,49.57
2016-09-24T02:48:48.476Z,49.57
2016-09-24T02:49:20.808Z,49.1
2016-09-24T02:49:53.145Z,49.48
2016-09-24T02:50:25.476Z,49.57
2016-09-24T02:50:57.804Z,49.38
2016-09-24T02:51:30.135Z,49.57
2016-09-24T02:52:02.472Z,49.48
2016-09-24T02:52:34.803Z,49.57
2016-09-24T02:53:07.125Z,49.57
2016-09-24T02:53:39.464Z,49.38
2016-09-24T02:54:11.773Z,49.57
2016-09-24T02:54:44.092Z,49.48
2016-09-24T02:55:16.404Z,49.19
2016-09-24T02:55:48.740Z,49.38
2016-09-24T02:56:21.069Z,49.48
2016-09-24T02:56:53.423Z,49.48
2016-09-24T02:57:25.745Z,49.48
2016-09-24T02:57:58.071Z,49.38
2016-09-24T02:58:30.394Z,49.46
2016-09-24T02:59:02.710Z,49.38
2016-09-24T02:59:35.033Z,49.38
2016-09-24T03:00:07.337Z,49.57
2016-09-24T03:00:39.670Z,49.48
2016-09-24T03:01:11.990Z,49.48
2016-09-24T03:01:44.314Z,49.48
2016-09-24T03:02:16.651Z,49.48
2016-09-24T03:02:48.979Z,49.38
2016-09-24T03:03:21.313Z,49.38
2016-09-24T03:03:53.644Z,49.29
2016-09-24T03:04:25.940Z,49.48
2016-09-24T03:04:58.270Z,49.38
2016-09-24T03:05:30.597Z,49.57
2016-09-24T03:06:02.934Z,49.38
2016-09-24T03:06:35.256Z,49.29
2016-09-24T03:07:07.600Z,49.55
2016-09-24T03:07:39.920Z,49.48
2016-09-24T03:08:12.256Z,49.29
2016-09-24T03:08:44.581Z,49.38
2016-09-24T03:09:16.894Z,49.36
2016-09-24T03:09:49.231Z,49.48
2016-09-24T03:10:21.560Z,49.36
2016-09-24T03:10:53.885Z,49.38
2016-09-24T03:11:26.206Z,49.38
2016-09-24T03:11:58.540Z,49.29
2016-09-24T03:12:30.860Z,49.38
2016-09-24T03:13:03.185Z,49.36
2016-09-24T03:13:35.513Z,49.36
2016-09-24T03:14:07.858Z,49.55
2016-09-24T03:14:40.180Z,49.38
2016-09-24T03:15:12.508Z,49.55
2016-09-24T03:15:44.808Z,49.46
2016-09-24T03:16:17.130Z,49.19
2016-09-24T03:16:49.462Z,49.38
2016-09-24T03:17:21.784Z,49.36
2016-09-24T03:17:54.099Z,49.36
2016-09-24T03:18:26.418Z,49.36
2016-09-24T03:18:58.754Z,49.17
2016-09-24T03:19:31.080Z,49.36
2016-09-24T03:20:03.393Z,49.46
2016-09-24T03:20:35.730Z,49.36
2016-09-24T03:21:08.061Z,49.17
2016-09-24T03:21:40.381Z,49.26
2016-09-24T03:22:12.723Z,49.26
2016-09-24T03:22:45.053Z,49.65
2016-09-24T03:23:17.388Z,49.36
2016-09-24T03:23:49.708Z,49.36
2016-09-24T03:24:22.046Z,49.46
2016-09-24T03:24:54.374Z,49.07
2016-09-24T03:25:26.706Z,49.17
2016-09-24T03:25:59.041Z,49.55
2016-09-24T03:26:31.365Z,49.46
2016-09-24T03:27:03.697Z,49.36
2016-09-24T03:27:36.031Z,49.17
2016-09-24T03:28:08.345Z,49.46
2016-09-24T03:28:40.675Z,49.17
2016-09-24T03:29:13.004Z,49.26
2016-09-24T03:29:45.324Z,49.36
2016-09-24T03:30:17.645Z,49.26
2016-09-24T03:30:49.950Z,49.26
2016-09-24T03:31:22.278Z,49.17
2016-09-24T03:31:54.604Z,49.55
2016-09-24T03:32:26.933Z,49.26
2016-09-24T03:32:59.265Z,49.17
2016-09-24T03:33:31.586Z,49.46
2016-09-24T03:34:03.908Z,49.55
2016-09-24T03:34:36.237Z,49.26
2016-09-24T03:35:08.556Z,49.26
2016-09-24T03:35:40.885Z,49.55
2016-09-24T03:36:13.214Z,49.65
2016-09-24T03:36:45.555Z,49.55
2016-09-24T03:37:17.891Z,49.55
2016-09-24T03:37:50.212Z,49.55
2016-09-24T03:38:22.545Z,49.46
2016-09-24T03:38:54.883Z,49.36
2016-09-24T03:39:27.200Z,49.36
2016-09-24T03:39:59.521Z,49.84
2016-09-24T03:40:31.856Z,49.26
2016-09-24T03:41:04.181Z,49.26
2016-09-24T03:41:36.505Z,49.55
2016-09-24T03:42:08.821Z,49.65
2016-09-24T03:42:41.139Z,49.46
2016-09-24T03:43:13.466Z,49.46
2016-09-24T03:43:45.781Z,49.65
2016-09-24T03:44:18.114Z,49.46
2016-09-24T03:44:50.440Z,49.65
2016-09-24T03:45:22.764Z,49.46
2016-09-24T03:45:55.073Z,49.46
2016-09-24T03:46:27.384Z,49.55
2016-09-24T03:46:59.704Z,49.46
2016-09-24T03:47:32.032Z,49.46
2016-09-24T03:48:04.365Z,49.46
2016-09-24T03:48:36.681Z,49.65
2016-09-24T03:49:09.000Z,49.55
2016-09-24T03:49:41.334Z,49.55
2016-09-24T03:50:13.671Z,49.46
2016-09-24T03:50:46.017Z,49.55
2016-09-24T03:51:18.344Z,49.65
2016-09-24T03:51:50.664Z,49.46
2016-09-24T03:52:22.990Z,49.55
2016-09-24T03:52:55.329Z,49.26
2016-09-24T03:53:27.652Z,49.46
2016-09-24T03:53:59.975Z,49.55
2016-09-24T03:54:32.303Z,49.55
2016-09-24T03:55:04.636Z,49.26
2016-09-24T03:55:36.967Z,49.55
2016-09-24T03:56:09.280Z,49.55
2016-09-24T03:56:41.595Z,49.55
2016-09-24T03:57:13.932Z,49.65
2016-09-24T03:57:46.244Z,49.55
2016-09-24T03:58:18.575Z,49.46
2016-09-24T03:58:50.906Z,49.55
2016-09-24T03:59:23.242Z,49.55
2016-09-24T03:59:55.575Z,49.65
2016-09-24T04:00:27.898Z,49.65
2016-09-24T04:01:00.231Z,49.55
2016-09-24T04:01:32.555Z,49.46
2016-09-24T04:02:04.912Z,49.55
2016-09-24T04:02:37.229Z,49.36
2016-09-24T04:03:09.554Z,49.07
2016-09-24T04:03:41.895Z,49.36
2016-09-24T04:04:14.228Z,49.55
2016-09-24T04:04:46.552Z,49.46
2016-09-24T04:05:18.901Z,49.46
2016-09-24T04:05:51.228Z,49.46
2016-09-24T04:06:23.538Z,49.26
2016-09-24T04:06:55.879Z,49.55
2016-09-24T04:07:28.203Z,49.26
2016-09-24T04:08:00.532Z,49.36
2016-09-24T04:08:32.855Z,49.46
2016-09-24T04:09:05.179Z,49.46
2016-09-24T04:09:37.501Z,49.36
2016-09-24T04:10:09.828Z,49.55
2016-09-24T04:10:42.171Z,49.55
2016-09-24T04:11:14.501Z,49.36
2016-09-24T04:11:46.808Z,49.26
2016-09-24T04:12:19.142Z,49.55
2016-09-24T04:12:51.470Z,49.36
2016-09-24T04:13:23.799Z,49.36
2016-09-24T04:13:56.136Z,49.55
2016-09-24T04:14:28.479Z,49.46
2016-09-24T04:15:00.796Z,49.46
2016-09-24T04:15:33.119Z,49.26
2016-09-24T04:16:05.487Z,49.65
2016-09-24T04:16:37.833Z,49.55
2016-09-24T04:17:10.153Z,49.65
2016-09-24T04:17:42.468Z,49.55
2016-09-24T04:18:14.805Z,49.55
2016-09-24T04:18:47.124Z,49.46
2016-09-24T04:19:19.445Z,49.55
2016-09-24T04:19:51.779Z,49.36
2016-09-24T04:20:24.120Z,49.46
2016-09-24T04:20:56.448Z,49.26
2016-09-24T04:21:28.779Z,49.36
2016-09-24T04:22:01.104Z,49.46
2016-09-24T04:22:33.424Z,49.36
2016-09-24T04:23:05.748Z,49.55
2016-09-24T04:23:38.074Z,49.55
2016-09-24T04:24:10.392Z,49.55
2016-09-24T04:24:42.716Z,49.26
2016-09-24T04:25:15.037Z,49.26
2016-09-24T04:25:47.353Z,49.55
2016-09-24T04:26:19.674Z,49.55
2016-09-24T04:26:51.991Z,49.46
2016-09-24T04:27:24.305Z,49.36
2016-09-24T04:27:56.638Z,49.46
2016-09-24T04:28:28.970Z,49.36
2016-09-24T04:29:01.291Z,49.36
2016-09-24T04:29:33.594Z,49.55
2016-09-24T04:30:05.926Z,49.36
2016-09-24T04:30:38.256Z,49.36
2016-09-24T04:31:10.595Z,49.26
2016-09-24T04:31:42.919Z,49.36
2016-09-24T04:32:15.239Z,49.36
2016-09-24T04:32:47.570Z,49.46
2016-09-24T04:33:19.888Z,49.26
2016-09-24T04:33:52.207Z,49.26
2016-09-24T04:34:24.527Z,49.46
2016-09-24T04:34:56.861Z,49.36
2016-09-24T04:35:29.175Z,49.36
2016-09-24T04:36:01.489Z,49.36
2016-09-24T04:36:33.806Z,49.36
2016-09-24T04:37:06.148Z,49.33
2016-09-24T04:37:38.465Z,49.65
2016-09-24T04:38:10.781Z,49.46
2016-09-24T04:38:43.101Z,49.46
2016-09-24T04:39:15.440Z,49.36
2016-09-24T04:39:47.761Z,49.36
2016-09-24T04:40:20.098Z,49.55
2016-09-24T04:40:52.414Z,49.43
2016-09-24T04:41:24.736Z,49.36
2016-09-24T04:41:57.059Z,49.55
2016-09-24T04:42:29.377Z,49.46
2016-09-24T04:43:01.697Z,49.46
2016-09-24T04:43:34.035Z,49.46
2016-09-24T04:44:06.362Z,49.36
2016-09-24T04:44:38.676Z,49.46
2016-09-24T04:45:11.008Z,49.46
2016-09-24T04:45:43.338Z,49.33
2016-09-24T04:46:15.651Z,49.36
2016-09-24T04:46:47.980Z,49.43
2016-09-24T04:47:20.301Z,49.55
2016-09-24T04:47:52.623Z,49.46
2016-09-24T04:48:24.945Z,49.46
2016-09-24T04:48:57.268Z,49.46
2016-09-24T04:49:29.589Z,49.55
2016-09-24T04:50:01.916Z,49.46
2016-09-24T04:50:34.220Z,49.46
2016-09-24T04:51:06.519Z,49.55
2016-09-24T04:51:38.846Z,49.43
2016-09-24T04:52:11.170Z,49.36
2016-09-24T04:52:43.493Z,49.46
2016-09-24T04:53:15.820Z,49.65
2016-09-24T04:53:48.158Z,49.46
2016-09-24T04:54:20.478Z,49.46
2016-09-24T04:54:52.815Z,49.55
2016-09-24T04:55:25.148Z,49.36
2016-09-24T04:55:57.475Z,49.55
2016-09-24T04:56:29.800Z,49.36
2016-09-24T04:57:02.123Z,49.46
2016-09-24T04:57:34.451Z,49.36
2016-09-24T04:58:06.771Z,49.93
2016-09-24T04:58:39.093Z,49.36
2016-09-24T04:59:11.421Z,49.65
2016-09-24T04:59:43.741Z,49.62
2016-09-24T05:00:16.067Z,49.15
2016-09-24T05:00:48.385Z,49.36
2016-09-24T05:01:20.729Z,49.24
2016-09-24T05:01:53.063Z,49.36
2016-09-24T05:02:25.400Z,49.43
2016-09-24T05:02:57.717Z,49.43
2016-09-24T05:03:30.078Z,49.43
2016-09-24T05:04:02.405Z,49.43
2016-09-24T05:04:34.733Z,49.33
2016-09-24T05:05:07.052Z,49.33
2016-09-24T05:05:39.377Z,49.46
2016-09-24T05:06:11.695Z,49.43
2016-09-24T05:06:44.025Z,49.46
2016-09-24T05:07:16.341Z,49.72
2016-09-24T05:07:48.674Z,49.55
2016-09-24T05:08:20.984Z,49.33
2016-09-24T05:08:53.304Z,49.46
2016-09-24T05:09:25.625Z,49.33
2016-09-24T05:09:57.946Z,49.24
2016-09-24T05:10:30.257Z,49.43
2016-09-24T05:11:02.592Z,49.24
2016-09-24T05:11:34.932Z,49.43
2016-09-24T05:12:07.263Z,49.36
2016-09-24T05:12:39.597Z,49.24
2016-09-24T05:13:11.923Z,49.52
2016-09-24T05:13:44.241Z,49.52
2016-09-24T05:14:16.560Z,49.43
2016-09-24T05:14:48.891Z,49.52
2016-09-24T05:15:21.218Z,49.65
2016-09-24T05:15:53.543Z,49.33
2016-09-24T05:16:25.867Z,49.72
2016-09-24T05:16:58.180Z,49.72
2016-09-24T05:17:30.511Z,49.52
2016-09-24T05:18:02.846Z,49.43
2016-09-24T05:18:35.175Z,49.43
2016-09-24T05:19:07.496Z,49.52
2016-09-24T05:19:39.822Z,49.33
2016-09-24T05:20:12.151Z,49.43
2016-09-24T05:20:44.471Z,49.46
2016-09-24T05:21:16.791Z,49.43
2016-09-24T05:21:49.118Z,49.52
2016-09-24T05:22:21.443Z,49.43
2016-09-24T05:22:53.772Z,49.62
2016-09-24T05:23:26.113Z,49.62
2016-09-24T05:23:58.447Z,49.62
2016-09-24T05:24:30.772Z,49.36
2016-09-24T05:25:03.099Z,49.52
2016-09-24T05:25:35.431Z,49.62
2016-09-24T05:26:07.749Z,49.33
2016-09-24T05:26:40.079Z,49.82
2016-09-24T05:27:12.412Z,49.43
2016-09-24T05:27:44.745Z,49.52
2016-09-24T05:28:17.067Z,49.33
2016-09-24T05:28:49.395Z,49.43
2016-09-24T05:29:21.717Z,49.91
2016-09-24T05:29:54.038Z,49.52
2016-09-24T05:30:26.362Z,49.72
2016-09-24T05:30:58.704Z,49.36
2016-09-24T05:31:31.030Z,49.43
2016-09-24T05:32:03.367Z,49.62
2016-09-24T05:32:35.696Z,49.62
2016-09-24T05:33:08.025Z,49.62
2016-09-24T05:33:40.354Z,49.52
2016-09-24T05:34:12.677Z,49.72
2016-09-24T05:34:44.988Z,49.52
2016-09-24T05:35:17.304Z,49.62
2016-09-24T05:35:49.636Z,49.52
2016-09-24T05:36:21.961Z,49.65
2016-09-24T05:36:54.290Z,49.62
2016-09-24T05:37:26.621Z,49.62
2016-09-24T05:37:58.939Z,49.33
2016-09-24T05:38:31.263Z,49.43
2016-09-24T05:39:03.593Z,49.82
2016-09-24T05:39:35.943Z,49.65
2016-09-24T05:40:08.279Z,49.46
2016-09-24T05:40:40.579Z,49.74
2016-09-24T05:41:12.897Z,49.52
2016-09-24T05:41:45.229Z,49.72
2016-09-24T05:42:17.550Z,49.33
2016-09-24T05:42:49.875Z,49.43
2016-09-24T05:43:22.216Z,49.65
2016-09-24T05:43:54.542Z,49.82
2016-09-24T05:44:26.857Z,49.55
2016-09-24T05:44:59.176Z,49.62
2016-09-24T05:45:31.504Z,49.52
2016-09-24T05:46:03.834Z,49.43
2016-09-24T05:46:36.162Z,49.91
2016-09-24T05:47:08.487Z,49.65
2016-09-24T05:47:40.813Z,49.65
2016-09-24T05:48:13.145Z,49.84
2016-09-24T05:48:45.461Z,49.55
2016-09-24T05:49:17.783Z,49.82
2016-09-24T05:49:50.115Z,49.65
2016-09-24T05:50:22.449Z,49.55
2016-09-24T05:50:54.789Z,49.55
2016-09-24T05:51:27.125Z,49.43
2016-09-24T05:51:59.439Z,49.62
2016-09-24T05:52:31.766Z,49.46
2016-09-24T05:53:04.108Z,49.55
2016-09-24T05:53:36.433Z,49.74
2016-09-24T05:54:08.762Z,49.36
2016-09-24T05:54:41.080Z,49.65
2016-09-24T05:55:13.406Z,49.55
2016-09-24T05:55:45.734Z,49.65
2016-09-24T05:56:18.047Z,49.55
2016-09-24T05:56:50.363Z,49.65
2016-09-24T05:57:22.688Z,49.65
2016-09-24T05:57:55.018Z,49.65
2016-09-24T05:58:27.337Z,49.65
2016-09-24T05:58:59.652Z,49.43
2016-09-24T05:59:31.966Z,49.55
2016-09-24T06:00:04.293Z,49.82
2016-09-24T06:00:36.631Z,49.65
2016-09-24T06:01:08.972Z,49.55
2016-09-24T06:01:41.297Z,49.52
2016-09-24T06:02:13.647Z,49.26
2016-09-24T06:02:45.969Z,49.46
2016-09-24T06:03:18.297Z,49.65
2016-09-24T06:03:50.621Z,49.62
2016-09-24T06:04:22.943Z,49.46
2016-09-24T06:04:55.271Z,49.55
2016-09-24T06:05:27.586Z,49.36
2016-09-24T06:05:59.895Z,49.93
2016-09-24T06:06:32.210Z,49.46
2016-09-24T06:07:04.543Z,49.36
2016-09-24T06:07:36.866Z,49.26
2016-09-24T06:08:09.186Z,49.93
2016-09-24T06:08:41.495Z,49.65
2016-09-24T06:09:13.822Z,49.65
2016-09-24T06:09:46.171Z,49.26
2016-09-24T06:10:18.492Z,49.46
2016-09-24T06:10:50.819Z,49.46
2016-09-24T06:11:23.153Z,49.26
2016-09-24T06:11:55.468Z,49.46
2016-09-24T06:12:27.792Z,49.36
2016-09-24T06:13:00.125Z,49.36
2016-09-24T06:13:32.447Z,49.46
2016-09-24T06:14:04.781Z,49.36
2016-09-24T06:14:37.095Z,49.46
2016-09-24T06:15:09.422Z,49.55
2016-09-24T06:15:41.750Z,49.93
2016-09-24T06:16:14.070Z,49.36
2016-09-24T06:16:46.407Z,49.36
2016-09-24T06:17:18.729Z,49.46
2016-09-24T06:17:51.031Z,49.55
2016-09-24T06:18:23.349Z,49.36
2016-09-24T06:18:55.672Z,49.46
2016-09-24T06:19:28.008Z,49.26
2016-09-24T06:20:00.331Z,49.36
2016-09-24T06:20:32.666Z,49.36
2016-09-24T06:21:04.990Z,49.36
2016-09-24T06:21:37.336Z,49.46
2016-09-24T06:22:09.654Z,49.46
2016-09-24T06:22:41.977Z,49.36
2016-09-24T06:23:14.322Z,49.55
2016-09-24T06:23:46.626Z,49.55
2016-09-24T06:24:18.949Z,49.17
2016-09-24T06:24:51.277Z,49.26
2016-09-24T06:25:23.598Z,49.26
2016-09-24T06:25:55.921Z,49.46
2016-09-24T06:26:28.248Z,49.48
2016-09-24T06:27:00.596Z,49.38
2016-09-24T06:27:32.912Z,49.48
2016-09-24T06:28:05.236Z,49.38
2016-09-24T06:28:37.552Z,49.38
2016-09-24T06:29:09.856Z,49.57
2016-09-24T06:29:42.182Z,49.67
2016-09-24T06:30:14.514Z,49.48
2016-09-24T06:30:46.824Z,49.48
2016-09-24T06:31:19.166Z,49.19
2016-09-24T06:31:51.493Z,49.57
2016-09-24T06:32:23.826Z,49.48
2016-09-24T06:32:56.146Z,48.9
2016-09-24T06:33:28.487Z,49
2016-09-24T06:34:00.827Z,49.1
2016-09-24T06:34:33.158Z,49.1
2016-09-24T06:35:05.510Z,49.29
2016-09-24T06:35:37.876Z,49.38
2016-09-24T06:36:10.201Z,49.38
2016-09-24T06:36:42.588Z,49
2016-09-24T06:37:14.989Z,49.48
2016-09-24T06:37:47.315Z,49.48
2016-09-24T06:38:19.671Z,49.19
2016-09-24T06:38:51.987Z,49.29
2016-09-24T06:39:24.303Z,49.48
2016-09-24T06:39:56.614Z,49.19
2016-09-24T06:40:28.933Z,48.9
2016-09-24T06:41:01.273Z,49.38
2016-09-24T06:41:33.596Z,49.41
2016-09-24T06:42:25.472Z,49
2016-09-24T06:42:57.792Z,49.31
2016-09-24T06:43:30.127Z,48.9
2016-09-24T06:44:02.458Z,49.19
2016-09-24T06:44:34.785Z,49.38
2016-09-24T06:45:07.149Z,48.93
2016-09-24T06:45:39.467Z,49.1
2016-09-24T06:46:11.793Z,49.12
2016-09-24T06:46:44.138Z,49.12
2016-09-24T06:47:16.469Z,48.93
2016-09-24T06:47:48.812Z,49.12
2016-09-24T06:48:21.139Z,49.02
2016-09-24T06:48:53.509Z,49.22
2016-09-24T06:49:25.840Z,49.02
2016-09-24T06:49:58.187Z,49.12
2016-09-24T06:50:30.505Z,49.41
2016-09-24T06:51:02.842Z,49.41
2016-09-24T06:51:35.159Z,49.02
2016-09-24T06:52:07.478Z,49.12
2016-09-24T06:52:39.811Z,49.12
2016-09-24T06:53:12.143Z,49.12
2016-09-24T06:53:44.479Z,49.02
2016-09-24T06:54:16.813Z,49.22
2016-09-24T06:54:49.151Z,49.12
2016-09-24T06:55:21.476Z,48.83
2016-09-24T06:55:53.811Z,48.83
2016-09-24T06:56:26.137Z,48.93
2016-09-24T06:56:58.472Z,48.83
2016-09-24T06:57:30.787Z,49.31
2016-09-24T06:58:03.112Z,49.22